createdAt,value
2022-11-07T00:01:39.372Z,3.03
2022-11-07T00:04:06.479Z,2.40
2022-11-07T00:06:37.368Z,2.37
2022-11-07T00:09:04.483Z,2.47
2022-11-07T00:11:31.579Z,2.10
2022-11-07T00:13:58.397Z,2.23
2022-11-07T00:16:26.627Z,2.57
2022-11-07T00:18:53.353Z,3.77
2022-11-07T00:21:19.980Z,2.93
2022-11-07T00:23:46.695Z,4.13
2022-11-07T00:26:14.949Z,7.27
2022-11-07T00:28:43.207Z,3.43
2022-11-07T00:31:11.586Z,2.63
2022-11-07T00:33:38.933Z,4.37
2022-11-07T00:36:06.219Z,2.90
2022-11-07T00:38:32.974Z,2.47
2022-11-07T00:41:02.378Z,2.57
2022-11-07T00:43:29.618Z,4.73
2022-11-07T00:45:56.871Z,2.47
2022-11-07T00:48:23.752Z,2.30
2022-11-07T00:50:50.812Z,3.67
2022-11-07T00:53:17.816Z,3.07
2022-11-07T00:55:45.308Z,2.60
2022-11-07T00:58:14.266Z,2.30
2022-11-07T01:00:41.700Z,3.33
2022-11-07T01:03:27.218Z,2.20
2022-11-07T01:06:03.210Z,2.07
2022-11-07T01:08:31.045Z,1.80
2022-11-07T01:10:59.134Z,4.70
2022-11-07T01:13:26.636Z,2.33
2022-11-07T01:15:53.780Z,3.00
2022-11-07T01:18:20.614Z,2.90
2022-11-07T01:20:49.142Z,2.17
2022-11-07T01:23:17.401Z,3.33
2022-11-07T01:25:44.995Z,4.30
2022-11-07T01:28:11.908Z,3.97
2022-11-07T01:30:42.675Z,4.33
2022-11-07T01:33:10.468Z,2.97
2022-11-07T01:35:37.642Z,2.90
2022-11-07T01:38:04.392Z,2.83
2022-11-07T01:40:33.697Z,5.43
2022-11-07T01:43:00.334Z,3.90
2022-11-07T01:45:29.767Z,3.27
2022-11-07T01:47:59.041Z,5.23
2022-11-07T01:50:26.690Z,4.20
2022-11-07T01:52:56.234Z,2.53
2022-11-07T01:55:29.700Z,3.97
2022-11-07T01:58:05.637Z,3.07
2022-11-07T02:00:34.554Z,2.73
2022-11-07T02:03:09.065Z,3.53
2022-11-07T02:05:42.919Z,2.87
2022-11-07T02:08:11.498Z,2.43
2022-11-07T02:10:40.647Z,5.97
2022-11-07T02:13:08.407Z,2.43
2022-11-07T02:15:36.674Z,4.13
2022-11-07T02:18:04.314Z,2.60
2022-11-07T02:20:31.028Z,4.47
2022-11-07T02:23:02.570Z,2.17
2022-11-07T02:25:29.740Z,3.73
2022-11-07T02:27:59.915Z,2.80
2022-11-07T02:30:30.303Z,3.30
2022-11-07T02:32:57.238Z,2.97
2022-11-07T02:35:37.995Z,3.50
2022-11-07T02:38:19.730Z,2.73
2022-11-07T02:40:52.811Z,3.10
2022-11-07T02:43:22.819Z,6.90
2022-11-07T02:45:50.329Z,3.30
2022-11-07T02:48:17.928Z,2.50
2022-11-07T02:50:45.016Z,3.50
2022-11-07T02:53:11.907Z,3.77
2022-11-07T02:55:39.197Z,3.30
2022-11-07T02:58:06.535Z,4.17
2022-11-07T03:00:33.590Z,3.57
2022-11-07T03:03:00.278Z,3.37
2022-11-07T03:05:26.968Z,5.10
2022-11-07T03:07:53.995Z,3.63
2022-11-07T03:10:20.829Z,4.70
2022-11-07T03:12:47.938Z,5.73
2022-11-07T03:15:15.105Z,2.47
2022-11-07T03:17:42.337Z,2.07
2022-11-07T03:20:09.873Z,3.37
2022-11-07T03:22:36.948Z,3.07
2022-11-07T03:25:04.278Z,4.90
2022-11-07T03:27:30.924Z,4.80
2022-11-07T03:29:57.552Z,3.20
2022-11-07T03:32:24.748Z,3.00
2022-11-07T03:34:51.377Z,3.70
2022-11-07T03:37:18.190Z,3.40
2022-11-07T03:39:45.259Z,3.50
2022-11-07T03:42:11.864Z,5.70
2022-11-07T03:44:38.532Z,4.87
2022-11-07T03:47:05.240Z,4.63
2022-11-07T03:49:31.896Z,3.37
2022-11-07T03:51:58.520Z,5.13
2022-11-07T03:54:25.581Z,3.37
2022-11-07T03:56:52.491Z,4.33
2022-11-07T03:59:19.570Z,5.40
2022-11-07T04:01:46.615Z,3.30
2022-11-07T04:04:13.397Z,3.57
2022-11-07T04:06:40.345Z,2.57
2022-11-07T04:09:07.375Z,4.03
2022-11-07T04:11:53.044Z,3.90
2022-11-07T04:14:38.454Z,4.47
2022-11-07T04:17:19.163Z,5.30
2022-11-07T04:19:54.779Z,2.73
2022-11-07T04:22:22.507Z,4.03
2022-11-07T04:24:49.721Z,4.77
2022-11-07T04:27:36.294Z,5.10
2022-11-07T04:30:26.832Z,4.57
2022-11-07T04:33:01.242Z,5.23
2022-11-07T04:35:30.998Z,6.43
2022-11-07T04:37:58.319Z,6.83
2022-11-07T04:40:25.494Z,4.90
2022-11-07T04:42:52.234Z,6.27
2022-11-07T04:45:19.000Z,4.87
2022-11-07T04:47:45.760Z,6.30
2022-11-07T04:50:14.508Z,5.40
2022-11-07T04:52:41.599Z,4.07
2022-11-07T04:55:10.146Z,4.87
2022-11-07T04:57:37.201Z,5.20
2022-11-07T05:00:04.694Z,4.27
2022-11-07T05:02:31.501Z,5.33
2022-11-07T05:04:58.229Z,4.70
2022-11-07T05:07:24.857Z,7.10
2022-11-07T05:09:51.613Z,6.80
2022-11-07T05:12:18.784Z,4.00
2022-11-07T05:14:45.414Z,4.13
2022-11-07T05:17:15.335Z,9.13
2022-11-07T05:19:45.629Z,4.77
2022-11-07T05:22:31.201Z,6.13
2022-11-07T05:24:58.107Z,7.67
2022-11-07T05:27:25.475Z,9.30
2022-11-07T05:29:52.468Z,7.87
2022-11-07T05:32:19.617Z,7.87
2022-11-07T05:34:46.289Z,5.53
2022-11-07T05:37:13.630Z,6.47
2022-11-07T05:39:40.686Z,8.40
2022-11-07T05:42:07.754Z,8.23
2022-11-07T05:44:34.945Z,6.00
2022-11-07T05:47:01.998Z,4.03
2022-11-07T05:49:29.055Z,9.70
2022-11-07T05:51:56.184Z,7.87
2022-11-07T05:54:24.606Z,6.73
2022-11-07T05:56:51.663Z,9.47
2022-11-07T05:59:18.799Z,10.50
2022-11-07T06:01:50.935Z,9.10
2022-11-07T06:04:18.381Z,8.80
2022-11-07T06:06:45.467Z,7.27
2022-11-07T06:09:12.523Z,6.27
2022-11-07T06:11:39.177Z,7.33
2022-11-07T06:14:05.937Z,7.20
2022-11-07T06:16:33.040Z,9.93
2022-11-07T06:19:00.106Z,7.63
2022-11-07T06:21:27.146Z,7.47
2022-11-07T06:23:54.206Z,5.90
2022-11-07T06:26:20.929Z,6.80
2022-11-07T06:28:47.550Z,5.70
2022-11-07T06:31:14.261Z,7.90
2022-11-07T06:33:40.936Z,7.20
2022-11-07T06:36:10.210Z,7.83
2022-11-07T06:38:37.689Z,8.13
2022-11-07T06:41:09.744Z,10.00
2022-11-07T06:43:37.594Z,8.93
2022-11-07T06:46:07.162Z,7.97
2022-11-07T06:48:34.492Z,6.33
2022-11-07T06:51:02.694Z,10.03
2022-11-07T06:53:31.321Z,8.83
2022-11-07T06:56:00.671Z,6.40
2022-11-07T06:58:27.656Z,5.70
2022-11-07T07:00:58.792Z,7.93
2022-11-07T07:03:25.471Z,8.97
2022-11-07T07:05:52.170Z,9.93
2022-11-07T07:08:19.340Z,11.57
2022-11-07T07:10:46.380Z,10.77
2022-11-07T07:13:14.596Z,8.13
2022-11-07T07:15:50.989Z,12.23
2022-11-07T07:18:18.951Z,11.60
2022-11-07T07:20:46.281Z,9.20
2022-11-07T07:23:13.450Z,9.37
2022-11-07T07:25:40.154Z,8.20
2022-11-07T07:28:07.227Z,10.40
2022-11-07T07:30:34.265Z,8.63
2022-11-07T07:33:00.889Z,10.60
2022-11-07T07:35:27.541Z,7.97
2022-11-07T07:37:54.676Z,8.10
2022-11-07T07:40:22.021Z,10.70
2022-11-07T07:42:48.668Z,7.33
2022-11-07T07:45:16.092Z,10.97
2022-11-07T07:47:42.835Z,9.10
2022-11-07T07:50:11.819Z,11.07
2022-11-07T07:52:38.913Z,10.60
2022-11-07T07:55:08.990Z,7.73
2022-11-07T07:57:42.919Z,11.30
2022-11-07T08:00:11.640Z,7.83
2022-11-07T08:02:38.580Z,10.30
2022-11-07T08:05:05.886Z,10.87
2022-11-07T08:07:32.516Z,12.23
2022-11-07T08:10:14.696Z,7.40
2022-11-07T08:12:48.217Z,9.53
2022-11-07T08:15:16.544Z,5.83
2022-11-07T08:17:43.809Z,6.10
2022-11-07T08:20:13.321Z,7.30
2022-11-07T08:22:40.622Z,5.83
2022-11-07T08:25:09.725Z,8.13
2022-11-07T08:27:37.201Z,4.67
2022-11-07T08:30:08.212Z,12.13
2022-11-07T08:32:34.950Z,8.20
2022-11-07T08:35:01.605Z,8.40
2022-11-07T08:37:28.667Z,7.47
2022-11-07T08:39:55.736Z,5.87
2022-11-07T08:42:22.965Z,10.43
2022-11-07T08:44:49.607Z,8.80
2022-11-07T08:47:16.720Z,4.77
2022-11-07T08:49:43.361Z,7.37
2022-11-07T08:52:10.025Z,5.77
2022-11-07T08:54:37.093Z,7.70
2022-11-07T08:57:03.928Z,5.03
2022-11-07T08:59:30.620Z,5.33
2022-11-07T09:02:28.329Z,8.17
2022-11-07T09:04:44.389Z,7.87
2022-11-07T09:07:11.121Z,8.40
2022-11-07T09:09:38.149Z,7.03
2022-11-07T09:12:04.968Z,7.17
2022-11-07T09:14:32.038Z,10.33
2022-11-07T09:16:58.705Z,7.43
2022-11-07T09:19:25.379Z,7.93
2022-11-07T09:21:52.452Z,5.30
2022-11-07T09:24:19.604Z,7.90
2022-11-07T09:26:46.659Z,9.17
2022-11-07T09:29:13.757Z,15.60
2022-11-07T09:31:40.854Z,8.73
2022-11-07T09:34:07.970Z,5.30
2022-11-07T09:36:35.109Z,6.47
2022-11-07T09:39:01.760Z,7.20
2022-11-07T09:42:03.142Z,5.03
2022-11-07T09:44:40.108Z,4.63
2022-11-07T09:47:17.019Z,6.87
2022-11-07T09:49:52.478Z,6.10
2022-11-07T09:52:31.713Z,4.67
2022-11-07T09:55:14.294Z,6.17
2022-11-07T09:57:41.269Z,5.37
2022-11-07T10:00:16.986Z,4.37
2022-11-07T10:02:47.506Z,4.87
2022-11-07T10:05:40.071Z,9.17
2022-11-07T10:08:11.638Z,5.73
2022-11-07T10:10:58.621Z,6.43
2022-11-07T10:13:54.638Z,5.17
2022-11-07T10:16:50.342Z,6.27
2022-11-07T10:19:17.397Z,5.63
2022-11-07T10:22:15.070Z,5.87
2022-11-07T10:25:09.417Z,5.03
2022-11-07T10:27:38.393Z,8.20
2022-11-07T10:30:17.777Z,5.53
2022-11-07T10:32:52.770Z,6.50
2022-11-07T10:35:28.985Z,7.80
2022-11-07T10:38:00.588Z,5.57
2022-11-07T10:40:40.128Z,6.17
2022-11-07T10:43:14.993Z,5.10
2022-11-07T10:45:42.177Z,4.60
2022-11-07T10:48:13.209Z,6.97
2022-11-07T10:50:40.015Z,6.77
2022-11-07T10:53:09.639Z,6.90
2022-11-07T10:55:45.154Z,4.27
2022-11-07T10:58:23.823Z,3.67
2022-11-07T11:01:06.218Z,4.87
2022-11-07T11:03:46.280Z,8.77
2022-11-07T11:06:18.992Z,5.13
2022-11-07T11:08:50.864Z,4.23
2022-11-07T11:11:32.615Z,6.57
2022-11-07T11:14:06.820Z,2.80
2022-11-07T11:16:37.394Z,3.30
2022-11-07T11:19:05.152Z,4.83
2022-11-07T11:21:46.688Z,2.80
2022-11-07T11:24:37.269Z,3.70
2022-11-07T11:27:25.866Z,3.23
2022-11-07T11:29:58.523Z,2.77
2022-11-07T11:32:32.673Z,2.80
2022-11-07T11:35:08.717Z,3.63
2022-11-07T11:37:41.329Z,2.77
2022-11-07T11:40:13.106Z,2.90
2022-11-07T11:42:58.785Z,2.60
2022-11-07T11:45:40.670Z,2.27
2022-11-07T11:48:29.657Z,3.23
2022-11-07T11:51:29.081Z,3.80
2022-11-07T11:53:56.162Z,2.87
2022-11-07T11:56:55.609Z,4.27
2022-11-07T11:59:48.841Z,3.73
2022-11-07T12:02:42.420Z,3.07
2022-11-07T12:05:54.013Z,3.87
2022-11-07T12:08:56.136Z,4.07
2022-11-07T12:11:51.213Z,3.90
2022-11-07T12:14:23.790Z,2.87
2022-11-07T12:17:00.739Z,4.33
2022-11-07T12:19:29.951Z,4.80
2022-11-07T12:22:14.513Z,4.40
2022-11-07T12:24:57.012Z,2.73
2022-11-07T12:27:36.088Z,3.63
2022-11-07T12:30:24.262Z,2.47
2022-11-07T12:33:06.199Z,3.80
2022-11-07T12:35:40.505Z,5.97
2022-11-07T12:38:46.501Z,2.83
2022-11-07T12:41:37.330Z,2.63
2022-11-07T12:44:28.886Z,2.80
2022-11-07T12:46:58.786Z,2.53
2022-11-07T12:49:28.376Z,2.97
2022-11-07T12:52:07.174Z,3.63
2022-11-07T12:54:56.510Z,2.20
2022-11-07T12:57:26.595Z,2.77
2022-11-07T13:00:22.242Z,2.87
2022-11-07T13:03:22.596Z,2.13
2022-11-07T13:06:08.977Z,3.57
2022-11-07T13:09:05.217Z,2.40
2022-11-07T13:11:32.250Z,2.43
2022-11-07T13:14:26.221Z,2.57
2022-11-07T13:17:01.511Z,2.20
2022-11-07T13:19:32.298Z,4.53
2022-11-07T13:22:01.286Z,2.80
2022-11-07T13:24:28.109Z,2.77
2022-11-07T13:26:54.790Z,2.03
2022-11-07T13:29:33.598Z,2.90
2022-11-07T13:32:11.895Z,2.20
2022-11-07T13:34:59.420Z,3.30
2022-11-07T13:37:36.177Z,2.17
2022-11-07T13:40:22.867Z,2.80
2022-11-07T13:42:56.133Z,2.60
2022-11-07T13:45:45.936Z,3.00
2022-11-07T13:48:26.501Z,2.97
2022-11-07T13:51:08.618Z,2.10
2022-11-07T13:54:03.426Z,3.30
2022-11-07T13:56:49.462Z,2.87
2022-11-07T13:59:36.872Z,5.97
2022-11-07T14:02:04.574Z,6.00
2022-11-07T14:04:39.826Z,4.37
2022-11-07T14:07:11.772Z,3.57
2022-11-07T14:09:39.376Z,2.93
2022-11-07T14:12:06.132Z,4.97
2022-11-07T14:14:33.189Z,4.60
2022-11-07T14:17:00.997Z,2.77
2022-11-07T14:19:30.151Z,5.43
2022-11-07T14:21:56.998Z,4.13
2022-11-07T14:24:29.501Z,4.00
2022-11-07T14:27:14.663Z,4.70
2022-11-07T14:29:58.495Z,4.30
2022-11-07T14:32:30.754Z,3.63
2022-11-07T14:35:00.281Z,4.77
2022-11-07T14:37:27.389Z,4.73
2022-11-07T14:39:54.521Z,4.93
2022-11-07T14:42:24.097Z,4.93
2022-11-07T14:44:55.831Z,7.90
2022-11-07T14:47:33.078Z,3.63
2022-11-07T14:50:01.803Z,5.63
2022-11-07T14:52:37.299Z,2.20
2022-11-07T14:55:29.466Z,6.17
2022-11-07T14:57:59.199Z,2.50
2022-11-07T15:00:26.030Z,3.03
2022-11-07T15:02:55.023Z,3.20
2022-11-07T15:05:26.928Z,3.23
2022-11-07T15:07:54.805Z,5.37
2022-11-07T15:10:30.088Z,4.00
2022-11-07T15:13:02.983Z,5.17
2022-11-07T15:15:37.255Z,5.60
2022-11-07T15:18:06.386Z,5.23
2022-11-07T15:20:33.471Z,6.20
2022-11-07T15:23:13.939Z,4.97
2022-11-07T15:25:59.599Z,4.83
2022-11-07T15:28:29.316Z,5.47
2022-11-07T15:31:00.900Z,3.63
2022-11-07T15:33:31.754Z,4.40
2022-11-07T15:36:01.387Z,2.57
2022-11-07T15:38:29.641Z,5.57
2022-11-07T15:40:56.606Z,4.53
2022-11-07T15:43:23.898Z,4.70
2022-11-07T15:45:52.827Z,4.90
2022-11-07T15:48:26.557Z,3.50
2022-11-07T15:50:54.215Z,4.37
2022-11-07T15:53:23.893Z,5.13
2022-11-07T15:55:56.737Z,5.07
2022-11-07T15:58:26.329Z,3.70
2022-11-07T16:00:53.838Z,3.93
2022-11-07T16:03:23.497Z,6.27
2022-11-07T16:05:52.476Z,6.07
2022-11-07T16:08:24.254Z,4.53
2022-11-07T16:10:56.899Z,5.50
2022-11-07T16:13:23.764Z,4.87
2022-11-07T16:16:19.316Z,6.80
2022-11-07T16:18:49.776Z,4.90
2022-11-07T16:21:20.620Z,4.67
2022-11-07T16:23:50.565Z,5.57
2022-11-07T16:26:28.810Z,4.87
2022-11-07T16:28:55.513Z,6.70
2022-11-07T16:31:22.263Z,6.63
2022-11-07T16:33:49.289Z,4.10
2022-11-07T16:36:25.206Z,5.27
2022-11-07T16:38:52.581Z,4.53
2022-11-07T16:41:19.590Z,6.07
2022-11-07T16:43:46.683Z,4.80
2022-11-07T16:46:19.250Z,4.53
2022-11-07T16:48:48.020Z,5.17
2022-11-07T16:51:20.106Z,6.83
2022-11-07T16:53:47.224Z,3.63
2022-11-07T16:56:28.840Z,5.43
2022-11-07T16:58:56.114Z,5.73
2022-11-07T17:01:24.150Z,6.07
2022-11-07T17:03:51.277Z,5.73
2022-11-07T17:06:30.315Z,6.73
2022-11-07T17:09:05.894Z,5.03
2022-11-07T17:11:35.566Z,5.73
2022-11-07T17:14:02.617Z,4.97
2022-11-07T17:16:34.652Z,5.10
2022-11-07T17:19:01.827Z,3.53
2022-11-07T17:21:31.316Z,6.07
2022-11-07T17:24:01.420Z,7.00
2022-11-07T17:26:31.447Z,5.70
2022-11-07T17:28:59.590Z,4.87
2022-11-07T17:31:26.759Z,10.00
2022-11-07T17:33:53.711Z,6.07
2022-11-07T17:36:37.423Z,5.27
2022-11-07T17:39:11.242Z,10.43
2022-11-07T17:41:39.470Z,17.60
2022-11-07T17:44:06.345Z,43.53
2022-11-07T17:46:34.195Z,18.43
2022-11-07T17:49:04.308Z,17.37
2022-11-07T17:51:31.060Z,20.23
2022-11-07T17:53:58.457Z,10.20
2022-11-07T17:56:28.109Z,7.80
2022-11-07T17:58:57.609Z,8.73
2022-11-07T18:01:27.052Z,6.37
2022-11-07T18:03:54.707Z,5.60
2022-11-07T18:06:23.395Z,6.07
2022-11-07T18:08:52.563Z,6.80
2022-11-07T18:11:22.197Z,6.03
2022-11-07T18:13:55.949Z,5.53
2022-11-07T18:16:28.348Z,4.23
2022-11-07T18:18:55.574Z,4.93
2022-11-07T18:21:22.247Z,3.93
2022-11-07T18:23:49.348Z,5.90
2022-11-07T18:26:21.539Z,3.97
2022-11-07T18:28:52.475Z,6.30
2022-11-07T18:31:21.561Z,6.57
2022-11-07T18:33:48.796Z,5.10
2022-11-07T18:36:18.652Z,6.97
2022-11-07T18:38:46.145Z,6.80
2022-11-07T18:41:16.778Z,5.50
2022-11-07T18:43:43.818Z,8.97
2022-11-07T18:46:14.942Z,6.60
2022-11-07T18:48:42.567Z,6.53
2022-11-07T18:51:17.295Z,5.87
2022-11-07T18:53:44.431Z,7.03
2022-11-07T18:56:12.636Z,6.30
2022-11-07T18:58:41.273Z,4.80
2022-11-07T19:01:14.091Z,8.10
2022-11-07T19:03:42.207Z,8.10
2022-11-07T19:06:11.825Z,5.87
2022-11-07T19:08:40.565Z,5.67
2022-11-07T19:11:10.521Z,5.20
2022-11-07T19:13:38.903Z,7.57
2022-11-07T19:16:07.288Z,7.37
2022-11-07T19:18:34.621Z,7.80
2022-11-07T19:21:03.570Z,8.63
2022-11-07T19:23:30.928Z,6.33
2022-11-07T19:25:58.053Z,5.53
2022-11-07T19:28:24.722Z,5.93
2022-11-07T19:30:51.360Z,8.93
2022-11-07T19:33:20.232Z,8.03
2022-11-07T19:35:47.970Z,8.70
2022-11-07T19:38:15.166Z,9.90
2022-11-07T19:40:48.341Z,12.00
2022-11-07T19:43:15.757Z,10.00
2022-11-07T19:45:42.883Z,9.03
2022-11-07T19:48:10.490Z,6.33
2022-11-07T19:50:38.958Z,9.80
2022-11-07T19:53:06.917Z,7.87
2022-11-07T19:55:35.214Z,9.50
2022-11-07T19:58:01.871Z,7.80
2022-11-07T20:00:28.776Z,7.30
2022-11-07T20:02:55.652Z,7.50
2022-11-07T20:05:26.898Z,5.17
2022-11-07T20:07:58.048Z,7.13
2022-11-07T20:10:26.245Z,7.57
2022-11-07T20:12:52.965Z,10.80
2022-11-07T20:15:20.087Z,6.83
2022-11-07T20:17:46.741Z,13.63
2022-11-07T20:20:14.103Z,7.07
2022-11-07T20:22:46.508Z,8.63
2022-11-07T20:25:13.925Z,7.67
2022-11-07T20:27:40.803Z,9.80
2022-11-07T20:30:08.272Z,12.07
2022-11-07T20:32:35.031Z,7.33
2022-11-07T20:35:02.172Z,11.17
2022-11-07T20:37:28.879Z,7.43
2022-11-07T20:39:55.977Z,10.40
2022-11-07T20:42:23.031Z,7.33
2022-11-07T20:44:50.961Z,5.00
2022-11-07T20:47:18.531Z,6.47
2022-11-07T20:49:45.645Z,12.03
2022-11-07T20:52:12.753Z,7.17
2022-11-07T20:54:39.849Z,8.77
2022-11-07T20:57:06.664Z,9.33
2022-11-07T20:59:35.148Z,10.03
2022-11-07T21:02:03.577Z,11.20
2022-11-07T21:04:44.412Z,6.00
2022-11-07T21:07:22.570Z,12.40
2022-11-07T21:09:49.582Z,10.10
2022-11-07T21:12:16.713Z,8.77
2022-11-07T21:14:43.384Z,9.57
2022-11-07T21:17:10.440Z,8.37
2022-11-07T21:19:37.068Z,7.43
2022-11-07T21:22:06.223Z,9.80
2022-11-07T21:24:32.936Z,9.20
2022-11-07T21:26:59.718Z,7.47
2022-11-07T21:29:29.716Z,12.83
2022-11-07T21:31:57.134Z,10.37
2022-11-07T21:34:24.119Z,12.10
2022-11-07T21:36:51.190Z,9.73
2022-11-07T21:39:18.052Z,10.77
2022-11-07T21:41:45.265Z,9.23
2022-11-07T21:44:12.524Z,9.90
2022-11-07T21:46:39.388Z,9.97
2022-11-07T21:49:06.265Z,10.13
2022-11-07T21:51:34.630Z,8.17
2022-11-07T21:54:03.519Z,12.17
2022-11-07T21:56:36.264Z,7.03
2022-11-07T21:59:11.502Z,9.00
2022-11-07T22:01:39.578Z,8.10
2022-11-07T22:04:10.475Z,10.90
2022-11-07T22:06:40.769Z,9.63
2022-11-07T22:09:08.740Z,12.37
2022-11-07T22:11:35.791Z,8.10
2022-11-07T22:14:02.993Z,10.13
2022-11-07T22:16:29.917Z,12.03
2022-11-07T22:18:57.033Z,7.27
2022-11-07T22:21:24.150Z,9.63
2022-11-07T22:23:51.100Z,11.20
2022-11-07T22:26:20.492Z,7.83
2022-11-07T22:28:47.819Z,8.63
2022-11-07T22:31:23.500Z,8.57
2022-11-07T22:33:51.551Z,8.73
2022-11-07T22:36:18.749Z,7.27
2022-11-07T22:38:45.920Z,10.33
2022-11-07T22:41:23.775Z,13.13
2022-11-07T22:43:51.111Z,9.17
2022-11-07T22:46:20.237Z,7.07
2022-11-07T22:48:47.911Z,7.27
2022-11-07T22:51:17.328Z,9.53
2022-11-07T22:53:44.876Z,10.13
2022-11-07T22:56:17.473Z,9.90
2022-11-07T22:58:46.020Z,9.50
2022-11-07T23:01:17.107Z,9.30
2022-11-07T23:03:44.174Z,11.57
2022-11-07T23:06:11.435Z,11.03
2022-11-07T23:08:38.579Z,10.00
2022-11-07T23:11:45.199Z,9.13
2022-11-07T23:14:00.843Z,8.13
2022-11-07T23:16:38.945Z,10.07
2022-11-07T23:19:08.206Z,5.27
2022-11-07T23:21:35.827Z,11.07
2022-11-07T23:24:02.801Z,8.73
2022-11-07T23:26:33.444Z,9.17
2022-11-07T23:29:10.500Z,10.23
2022-11-07T23:31:38.797Z,9.83
2022-11-07T23:34:05.509Z,10.10
2022-11-07T23:36:32.586Z,9.43
2022-11-07T23:39:06.802Z,11.93
2022-11-07T23:41:34.114Z,7.97
2022-11-07T23:44:01.254Z,8.13
2022-11-07T23:46:46.504Z,11.13
2022-11-07T23:49:31.964Z,8.67
2022-11-07T23:51:58.624Z,7.87
2022-11-07T23:54:43.722Z,9.37
2022-11-07T23:57:10.796Z,8.07
2022-11-07T23:59:55.839Z,5.87
